Time;durP1;ratioP1;P1;durP2;ratioP2;P2;SDS_P1;SDS_P2;PMS_P1;PMS_P2;Temp;Humidity;BMP_temperature;BMP_pressure;BME280_temperature;BME280_humidity;BME280_pressure;Samples;Min_cycle;Max_cycle;Signal;HPM_P1;HPM_P2
2021/10/30 00:00:10;;;;;;;5.72;3.08;;;12.70;99.90;;;;;;5013887;28;20018;-75
2021/10/30 00:02:36;;;;;;;4.70;3.00;;;12.70;99.90;;;;;;5013895;28;20021;-75
2021/10/30 00:05:03;;;;;;;4.88;2.83;;;12.70;99.90;;;;;;5013982;28;20079;-76
2021/10/30 00:07:29;;;;;;;4.75;2.75;;;12.70;99.90;;;;;;5012297;28;20061;-76
2021/10/30 00:09:54;;;;;;;5.53;3.00;;;12.70;99.90;;;;;;5012314;28;20022;-76
2021/10/30 00:12:20;;;;;;;4.30;2.88;;;12.60;99.90;;;;;;5013409;28;20470;-76
2021/10/30 00:14:48;;;;;;;4.88;2.80;;;12.60;99.90;;;;;;5013880;28;20029;-76
2021/10/30 00:17:14;;;;;;;6.20;3.25;;;12.60;99.90;;;;;;5013630;28;20026;-77
2021/10/30 00:19:40;;;;;;;6.05;3.15;;;12.60;99.90;;;;;;5013011;28;20397;-76
2021/10/30 00:22:06;;;;;;;6.38;3.17;;;12.60;99.90;;;;;;5012482;28;20088;-74
2021/10/30 00:24:32;;;;;;;4.78;2.72;;;12.60;99.90;;;;;;5013491;28;20026;-74
2021/10/30 00:27:02;;;;;;;5.78;3.08;;;12.50;99.90;;;;;;5012274;28;20072;-77
2021/10/30 00:29:28;;;;;;;6.55;3.25;;;12.50;99.90;;;;;;5011633;28;20046;-74
2021/10/30 00:31:55;;;;;;;6.50;2.92;;;12.50;99.90;;;;;;5013036;28;20084;-75
2021/10/30 00:34:22;;;;;;;5.78;3.33;;;12.50;99.90;;;;;;5012007;28;20032;-75
2021/10/30 00:36:48;;;;;;;5.88;2.47;;;12.50;99.90;;;;;;5013276;28;20030;-75
2021/10/30 00:39:14;;;;;;;5.05;2.95;;;12.50;99.90;;;;;;5013287;28;20026;-75
2021/10/30 00:41:39;;;;;;;6.85;3.20;;;12.50;99.90;;;;;;5013053;28;20029;-75
2021/10/30 00:44:09;;;;;;;6.40;3.40;;;12.50;99.90;;;;;;5012930;28;20034;-75
2021/10/30 00:46:38;;;;;;;4.43;2.80;;;12.50;99.90;;;;;;5012099;28;20026;-76
2021/10/30 00:49:04;;;;;;;6.85;3.40;;;12.50;99.90;;;;;;5011823;28;20107;-75
2021/10/30 00:51:31;;;;;;;6.20;3.67;;;12.40;99.90;;;;;;5013593;28;20562;-76
2021/10/30 00:53:57;;;;;;;6.88;3.72;;;12.40;99.90;;;;;;5019613;28;20026;-76
2021/10/30 00:56:23;;;;;;;7.15;3.75;;;12.40;99.90;;;;;;5020140;28;20347;-76
2021/10/30 00:58:50;;;;;;;5.25;3.65;;;12.40;99.90;;;;;;5019907;28;20032;-75
2021/10/30 01:01:16;;;;;;;6.22;3.22;;;12.40;99.90;;;;;;5019349;28;20026;-76
2021/10/30 01:03:44;;;;;;;6.50;3.10;;;12.40;99.90;;;;;;5018332;28;20385;-75
2021/10/30 01:06:10;;;;;;;6.35;3.47;;;12.40;99.90;;;;;;5018474;28;20030;-75
2021/10/30 01:08:35;;;;;;;6.45;3.47;;;12.40;99.90;;;;;;5018281;28;20028;-76
2021/10/30 01:11:02;;;;;;;6.15;3.75;;;12.30;99.90;;;;;;5017932;28;20076;-75
2021/10/30 01:13:28;;;;;;;8.80;4.07;;;12.30;99.90;;;;;;5019308;28;20026;-75
2021/10/30 01:15:53;;;;;;;6.22;3.47;;;12.30;99.90;;;;;;5018090;28;20022;-75
2021/10/30 01:18:19;;;;;;;7.65;3.80;;;12.30;99.90;;;;;;5019939;28;20132;-76
2021/10/30 01:20:45;;;;;;;7.82;4.53;;;12.20;99.90;;;;;;5019390;28;20416;-77
2021/10/30 01:23:11;;;;;;;8.15;4.07;;;12.30;99.90;;;;;;5017838;28;20033;-76
2021/10/30 01:25:37;;;;;;;8.18;4.25;;;12.30;99.90;;;;;;5018198;28;20026;-76
2021/10/30 01:28:03;;;;;;;7.82;4.00;;;12.20;99.90;;;;;;5019269;28;20022;-76
2021/10/30 01:30:29;;;;;;;7.50;4.15;;;12.20;99.90;;;;;;5019415;28;20112;-76
2021/10/30 01:32:58;;;;;;;6.03;3.50;;;12.20;99.90;;;;;;5017922;28;20022;-76
2021/10/30 01:35:35;;;;;;;7.18;4.10;;;12.20;99.90;;;;;;5019347;28;20029;-76
2021/10/30 01:38:03;;;;;;;7.05;4.07;;;12.20;99.90;;;;;;5017813;28;20037;-76
2021/10/30 01:40:30;;;;;;;7.20;3.47;;;12.10;99.90;;;;;;5019315;28;20022;-76
2021/10/30 01:43:01;;;;;;;8.32;4.65;;;12.10;99.90;;;;;;5017855;28;20497;-76
2021/10/30 01:45:28;;;;;;;6.43;3.63;;;12.10;99.90;;;;;;5018215;28;20052;-75
2021/10/30 01:47:56;;;;;;;7.10;4.35;;;12.10;99.90;;;;;;5019100;28;20093;-76
2021/10/30 01:50:23;;;;;;;6.55;3.97;;;12.10;99.90;;;;;;5019257;28;20117;-76
2021/10/30 01:52:50;;;;;;;9.75;3.85;;;12.10;99.90;;;;;;5017970;28;20026;-75
2021/10/30 01:55:18;;;;;;;7.30;4.07;;;12.10;99.90;;;;;;5018057;28;20080;-76
2021/10/30 01:57:46;;;;;;;7.32;4.38;;;12.10;99.90;;;;;;5018028;28;20054;-76
2021/10/30 02:00:12;;;;;;;7.82;4.82;;;12.10;99.90;;;;;;5018071;28;20044;-76
2021/10/30 02:02:37;;;;;;;7.18;4.25;;;12.00;99.90;;;;;;5017469;28;20022;-76
2021/10/30 02:05:05;;;;;;;7.20;4.20;;;12.00;99.90;;;;;;5015009;28;20040;-77
2021/10/30 02:07:30;;;;;;;6.47;3.70;;;12.00;99.90;;;;;;5015767;28;20141;-77
2021/10/30 02:09:56;;;;;;;8.88;4.25;;;12.00;99.90;;;;;;5015105;28;20473;-76
2021/10/30 02:12:22;;;;;;;7.72;3.83;;;12.00;99.90;;;;;;5017418;28;20030;-76
2021/10/30 02:14:47;;;;;;;6.85;3.75;;;12.00;99.90;;;;;;5015045;28;20378;-77
2021/10/30 02:17:13;;;;;;;7.78;3.75;;;11.90;99.90;;;;;;5015889;28;20459;-76
2021/10/30 02:19:39;;;;;;;7.35;4.00;;;12.00;99.90;;;;;;5014484;28;20095;-76
2021/10/30 02:22:05;;;;;;;7.55;4.03;;;12.00;99.90;;;;;;5014193;28;20025;-76
2021/10/30 02:24:32;;;;;;;6.13;4.07;;;12.00;99.90;;;;;;5014430;28;20022;-75
2021/10/30 02:26:58;;;;;;;7.28;4.07;;;12.00;99.90;;;;;;5014195;28;20022;-75
2021/10/30 02:29:24;;;;;;;8.23;4.55;;;11.90;99.90;;;;;;5014454;28;20488;-75
2021/10/30 02:31:49;;;;;;;9.50;4.55;;;11.90;99.90;;;;;;5014183;28;20467;-76
2021/10/30 02:34:15;;;;;;;8.00;4.40;;;12.00;99.90;;;;;;5015127;28;20056;-75
2021/10/30 02:36:41;;;;;;;6.43;3.97;;;12.00;99.90;;;;;;5015902;28;20037;-75
2021/10/30 02:39:07;;;;;;;9.75;4.32;;;12.10;99.90;;;;;;5014153;28;20040;-75
2021/10/30 02:41:32;;;;;;;10.30;5.03;;;12.10;99.90;;;;;;5014746;28;20026;-75
2021/10/30 02:43:58;;;;;;;6.35;3.85;;;12.10;99.90;;;;;;5015002;28;20026;-76
2021/10/30 02:46:23;;;;;;;6.65;3.90;;;12.10;99.90;;;;;;5015015;28;20034;-75
2021/10/30 02:48:49;;;;;;;7.05;3.80;;;12.20;99.90;;;;;;5015206;28;20033;-76
2021/10/30 02:51:15;;;;;;;7.38;4.13;;;12.20;99.90;;;;;;5013845;28;20018;-75
2021/10/30 02:53:40;;;;;;;6.88;3.63;;;12.20;99.90;;;;;;5014071;28;20030;-75
2021/10/30 02:56:06;;;;;;;7.18;4.15;;;12.20;99.90;;;;;;5014441;28;20468;-75
2021/10/30 02:58:32;;;;;;;7.78;4.20;;;12.20;99.90;;;;;;5015381;28;20462;-75
2021/10/30 03:00:57;;;;;;;8.30;4.13;;;12.20;99.90;;;;;;5014877;28;20064;-76
2021/10/30 03:03:23;;;;;;;7.00;3.47;;;12.30;99.90;;;;;;5015247;28;20465;-76
2021/10/30 03:05:49;;;;;;;6.95;3.80;;;12.30;99.90;;;;;;5015068;28;20508;-75
2021/10/30 03:08:14;;;;;;;7.18;4.05;;;12.30;99.90;;;;;;5014747;28;20374;-76
2021/10/30 03:10:41;;;;;;;6.32;3.67;;;12.30;99.90;;;;;;5014205;28;20026;-76
2021/10/30 03:13:07;;;;;;;7.32;4.13;;;12.30;99.90;;;;;;5014667;28;20030;-77
2021/10/30 03:15:33;;;;;;;5.22;3.70;;;12.30;99.90;;;;;;5014076;28;20026;-77
2021/10/30 03:17:58;;;;;;;6.70;3.90;;;12.30;99.90;;;;;;5013796;28;20033;-77
2021/10/30 03:20:24;;;;;;;6.15;3.55;;;12.30;99.90;;;;;;5013271;28;20022;-77
2021/10/30 03:22:51;;;;;;;7.03;3.80;;;12.30;99.80;;;;;;5014459;28;20028;-77
2021/10/30 03:25:17;;;;;;;8.65;5.25;;;12.40;99.90;;;;;;5013438;28;20034;-77
2021/10/30 03:27:42;;;;;;;10.50;5.13;;;12.40;99.80;;;;;;5014448;28;20480;-77
2021/10/30 03:30:09;;;;;;;8.68;5.07;;;12.40;99.80;;;;;;5014631;28;20046;-77
2021/10/30 03:32:35;;;;;;;7.28;4.47;;;12.40;99.80;;;;;;5013183;28;20088;-77
2021/10/30 03:35:01;;;;;;;7.40;4.43;;;12.40;99.80;;;;;;5013213;28;20335;-74
2021/10/30 03:37:27;;;;;;;7.28;4.45;;;12.50;99.80;;;;;;5014545;28;20088;-77
2021/10/30 03:39:53;;;;;;;7.13;3.70;;;12.40;99.80;;;;;;5014247;28;20429;-77
2021/10/30 03:42:19;;;;;;;6.85;4.00;;;12.40;99.80;;;;;;5014189;28;20025;-77
2021/10/30 03:44:45;;;;;;;7.53;4.47;;;12.40;99.80;;;;;;5012905;28;20393;-77
2021/10/30 03:47:11;;;;;;;8.00;3.95;;;12.40;99.80;;;;;;5012834;28;20123;-77
2021/10/30 03:49:37;;;;;;;6.53;4.45;;;12.40;99.80;;;;;;5014144;28;20481;-77
2021/10/30 03:52:03;;;;;;;7.00;4.35;;;12.40;99.80;;;;;;5012904;28;20049;-77
2021/10/30 03:54:28;;;;;;;6.82;4.30;;;12.40;99.80;;;;;;5014072;28;20022;-76
2021/10/30 03:56:55;;;;;;;6.78;4.47;;;12.40;99.80;;;;;;5013700;28;20030;-77
2021/10/30 03:59:20;;;;;;;8.70;4.38;;;12.50;99.80;;;;;;5013710;28;20026;-76
2021/10/30 04:01:46;;;;;;;8.15;4.13;;;12.50;99.80;;;;;;5013958;28;20032;-77
2021/10/30 04:04:12;;;;;;;9.02;4.60;;;12.40;99.80;;;;;;5012466;28;20045;-76
2021/10/30 04:06:37;;;;;;;8.27;4.53;;;12.50;99.80;;;;;;5013185;28;20022;-76
2021/10/30 04:09:04;;;;;;;7.72;4.75;;;12.50;99.80;;;;;;5012320;28;20022;-77
2021/10/30 04:11:30;;;;;;;11.18;4.72;;;12.50;99.80;;;;;;5012366;28;20454;-76
2021/10/30 04:13:55;;;;;;;9.45;5.22;;;12.50;99.80;;;;;;5013633;28;20106;-77
2021/10/30 04:16:21;;;;;;;12.23;5.50;;;12.50;99.80;;;;;;5012375;28;20113;-76
2021/10/30 04:18:47;;;;;;;11.25;6.13;;;12.50;99.70;;;;;;5014068;28;20536;-76
2021/10/30 04:21:13;;;;;;;8.90;5.60;;;12.60;99.70;;;;;;5012255;28;20022;-76
2021/10/30 04:23:39;;;;;;;10.20;5.55;;;12.60;99.60;;;;;;5013561;28;20025;-76
2021/10/30 04:26:07;;;;;;;10.55;5.82;;;12.60;99.60;;;;;;5013343;28;20135;-75
2021/10/30 04:28:33;;;;;;;11.18;6.18;;;12.70;99.60;;;;;;5012083;28;20033;-75
2021/10/30 04:31:04;;;;;;;12.02;6.75;;;12.70;99.60;;;;;;5011912;28;20395;-76
2021/10/30 04:33:30;;;;;;;10.65;6.20;;;12.70;99.60;;;;;;5012823;28;20086;-76
2021/10/30 04:35:55;;;;;;;13.50;6.47;;;12.60;99.60;;;;;;5012905;28;20416;-76
2021/10/30 04:38:22;;;;;;;11.95;6.75;;;12.60;99.60;;;;;;5013104;28;20026;-76
2021/10/30 04:40:48;;;;;;;12.57;6.13;;;12.60;99.50;;;;;;5012745;28;20021;-75
2021/10/30 04:43:14;;;;;;;12.10;6.25;;;12.60;99.50;;;;;;5011961;28;20397;-75
2021/10/30 04:45:41;;;;;;;10.20;5.90;;;12.60;99.50;;;;;;5011855;28;20026;-76
2021/10/30 04:48:07;;;;;;;17.05;6.97;;;12.60;99.50;;;;;;5013416;28;20097;-76
2021/10/30 04:50:33;;;;;;;10.73;6.75;;;12.60;99.50;;;;;;5011939;28;20377;-76
2021/10/30 04:52:59;;;;;;;16.98;6.35;;;12.60;99.50;;;;;;5012519;28;20508;-77
2021/10/30 04:55:24;;;;;;;10.38;6.35;;;12.60;99.50;;;;;;5013438;28;20374;-76
2021/10/30 04:57:50;;;;;;;11.80;5.85;;;12.70;99.50;;;;;;5011887;28;20026;-76
2021/10/30 05:00:16;;;;;;;9.98;6.28;;;12.60;99.50;;;;;;5011744;28;20203;-76
2021/10/30 05:02:42;;;;;;;13.70;6.65;;;12.60;99.50;;;;;;5013123;28;20089;-75
2021/10/30 05:05:08;;;;;;;10.02;5.22;;;12.60;99.50;;;;;;5012713;28;20525;-75
2021/10/30 05:07:34;;;;;;;11.65;5.63;;;12.70;99.50;;;;;;5011673;28;20362;-75
2021/10/30 05:09:59;;;;;;;12.05;6.30;;;12.60;99.40;;;;;;5011654;28;20033;-76
2021/10/30 05:12:25;;;;;;;10.00;5.45;;;12.60;99.40;;;;;;5012758;28;20030;-75
2021/10/30 05:14:51;;;;;;;8.50;4.95;;;12.60;99.40;;;;;;5013735;28;20173;-75
2021/10/30 05:17:16;;;;;;;9.30;5.95;;;12.70;99.40;;;;;;5011607;28;20429;-74
2021/10/30 05:19:42;;;;;;;10.02;5.25;;;12.60;99.40;;;;;;5012300;28;20022;-74
2021/10/30 05:22:08;;;;;;;9.75;5.50;;;12.60;99.40;;;;;;5012297;28;20027;-77
2021/10/30 05:24:33;;;;;;;11.95;5.78;;;12.60;99.30;;;;;;5011191;28;20466;-75
2021/10/30 05:26:59;;;;;;;10.50;5.63;;;12.60;99.40;;;;;;5013157;28;20030;-74
2021/10/30 05:29:25;;;;;;;13.88;6.25;;;12.60;99.40;;;;;;5011842;28;20478;-76
2021/10/30 05:31:50;;;;;;;10.68;5.75;;;12.60;99.40;;;;;;5012334;28;20429;-74
2021/10/30 05:34:16;;;;;;;13.38;5.40;;;12.60;99.40;;;;;;5011184;28;20022;-75
2021/10/30 05:36:42;;;;;;;11.00;6.10;;;12.60;99.40;;;;;;5012833;28;20034;-75
2021/10/30 05:39:14;;;;;;;9.95;5.75;;;12.60;99.40;;;;;;5015233;28;20018;-75
2021/10/30 05:41:40;;;;;;;10.50;5.95;;;12.60;99.40;;;;;;5016537;28;20105;-75
2021/10/30 05:44:06;;;;;;;10.98;5.70;;;12.60;99.40;;;;;;5016391;28;20462;-77
2021/10/30 05:46:32;;;;;;;10.82;5.15;;;12.60;99.40;;;;;;5015047;28;20477;-75
2021/10/30 05:49:01;;;;;;;8.85;4.90;;;12.60;99.40;;;;;;5015090;28;20026;-75
2021/10/30 05:51:27;;;;;;;9.95;5.57;;;12.60;99.30;;;;;;5014993;28;20037;-75
2021/10/30 05:53:52;;;;;;;7.60;4.45;;;12.60;99.40;;;;;;5015019;28;20030;-75
2021/10/30 05:56:18;;;;;;;9.27;4.65;;;12.50;99.40;;;;;;5014942;28;20381;-75
2021/10/30 05:58:44;;;;;;;9.98;5.75;;;12.50;99.40;;;;;;5016478;28;20025;-75
2021/10/30 06:01:09;;;;;;;9.82;5.28;;;12.50;99.40;;;;;;5014752;28;20026;-75
2021/10/30 06:03:35;;;;;;;10.63;4.93;;;12.50;99.40;;;;;;5016072;28;20033;-76
2021/10/30 06:06:01;;;;;;;8.00;4.88;;;12.60;99.40;;;;;;5016469;28;20034;-75
2021/10/30 06:08:26;;;;;;;9.35;4.82;;;12.50;99.40;;;;;;5016051;28;20029;-75
2021/10/30 06:10:53;;;;;;;8.85;4.97;;;12.50;99.40;;;;;;5014731;28;20481;-75
2021/10/30 06:13:19;;;;;;;9.73;4.90;;;12.50;99.40;;;;;;5016074;28;20365;-77
2021/10/30 06:15:45;;;;;;;11.15;4.82;;;12.50;99.40;;;;;;5015887;28;20029;-75
2021/10/30 06:18:11;;;;;;;9.45;4.65;;;12.50;99.40;;;;;;5014503;28;20064;-76
2021/10/30 06:20:37;;;;;;;9.27;5.70;;;12.60;99.40;;;;;;5015261;28;20091;-76
2021/10/30 06:23:03;;;;;;;10.75;5.60;;;12.50;99.40;;;;;;5014742;28;20014;-76
2021/10/30 06:25:30;;;;;;;9.77;5.28;;;12.50;99.40;;;;;;5015689;28;20057;-76
2021/10/30 06:27:55;;;;;;;9.70;5.93;;;12.50;99.40;;;;;;5014382;28;20541;-76
2021/10/30 06:30:21;;;;;;;9.70;5.55;;;12.50;99.40;;;;;;5015796;28;20125;-77
2021/10/30 06:32:47;;;;;;;11.07;5.65;;;12.50;99.50;;;;;;5015542;28;20104;-76
2021/10/30 06:35:12;;;;;;;10.32;5.72;;;12.50;99.50;;;;;;5014969;28;20100;-76
2021/10/30 06:37:41;;;;;;;12.50;5.30;;;12.60;99.50;;;;;;5014458;28;20025;-76
2021/10/30 06:40:12;;;;;;;13.68;6.57;;;12.50;99.40;;;;;;5016480;28;20030;-77
2021/10/30 06:42:38;;;;;;;9.77;5.80;;;12.60;99.70;;;;;;5016729;28;20034;-77
2021/10/30 06:45:05;;;;;;;10.02;5.43;;;12.60;99.40;;;;;;5016595;28;20345;-77
2021/10/30 06:47:31;;;;;;;14.07;5.57;;;12.50;99.50;;;;;;5015844;28;20042;-76
2021/10/30 06:49:59;;;;;;;9.70;5.20;;;12.50;99.50;;;;;;5013673;28;20509;-76
2021/10/30 06:52:26;;;;;;;9.68;5.55;;;12.50;99.50;;;;;;5016472;28;20030;-76
2021/10/30 06:54:52;;;;;;;9.48;5.07;;;12.50;99.50;;;;;;5014735;28;20022;-76
2021/10/30 06:57:18;;;;;;;11.48;5.55;;;12.50;99.50;;;;;;5015643;28;20461;-76
2021/10/30 06:59:43;;;;;;;9.35;4.75;;;12.50;99.50;;;;;;5015033;28;20103;-76
2021/10/30 07:02:11;;;;;;;10.23;5.10;;;12.50;99.50;;;;;;5013848;28;20051;-76
2021/10/30 07:04:37;;;;;;;9.95;5.20;;;12.60;99.50;;;;;;5013586;28;20018;-76
2021/10/30 07:07:03;;;;;;;10.95;5.85;;;12.50;99.50;;;;;;5014264;28;20084;-76
2021/10/30 07:09:29;;;;;;;8.98;5.45;;;12.60;99.60;;;;;;5014191;28;20024;-76
2021/10/30 07:11:54;;;;;;;8.18;5.22;;;12.50;99.50;;;;;;5015056;28;20025;-76
2021/10/30 07:14:22;;;;;;;14.30;6.07;;;12.60;99.60;;;;;;5014639;28;20022;-76
2021/10/30 07:16:48;;;;;;;10.38;4.60;;;12.50;99.60;;;;;;5013344;28;20076;-76
2021/10/30 07:19:14;;;;;;;11.57;6.20;;;12.50;99.60;;;;;;5014286;28;20026;-76
2021/10/30 07:21:40;;;;;;;9.23;4.55;;;12.60;99.60;;;;;;5014347;28;20022;-76
2021/10/30 07:24:06;;;;;;;9.77;4.45;;;12.60;99.60;;;;;;5014882;28;20454;-76
2021/10/30 07:26:32;;;;;;;10.73;5.20;;;12.60;99.60;;;;;;5014489;28;20040;-76
2021/10/30 07:28:58;;;;;;;11.05;6.03;;;12.60;99.70;;;;;;5013077;28;20377;-76
2021/10/30 07:31:23;;;;;;;10.25;5.45;;;12.60;99.60;;;;;;5014598;28;20383;-76
2021/10/30 07:33:49;;;;;;;11.82;5.53;;;12.60;99.60;;;;;;5013177;28;20026;-76
2021/10/30 07:36:15;;;;;;;13.07;5.10;;;12.60;99.60;;;;;;5013025;28;20462;-75
2021/10/30 07:38:40;;;;;;;9.20;4.97;;;12.60;99.60;;;;;;5014387;28;20026;-75
2021/10/30 07:41:06;;;;;;;11.00;5.68;;;12.60;99.60;;;;;;5013810;28;20025;-76
2021/10/30 07:43:33;;;;;;;9.35;5.22;;;12.60;99.60;;;;;;5014761;28;20029;-76
2021/10/30 07:45:59;;;;;;;10.52;5.50;;;12.60;99.70;;;;;;5013182;28;20057;-76
2021/10/30 07:48:25;;;;;;;9.50;4.97;;;12.60;99.60;;;;;;5013329;28;20454;-76
2021/10/30 07:50:51;;;;;;;9.02;4.18;;;12.60;99.60;;;;;;5013126;28;20029;-76
2021/10/30 07:53:17;;;;;;;10.75;4.97;;;12.70;99.60;;;;;;5014317;28;20432;-76
2021/10/30 07:55:43;;;;;;;8.02;4.68;;;12.70;99.60;;;;;;5014041;28;20528;-76
2021/10/30 07:58:08;;;;;;;9.15;5.00;;;12.70;99.60;;;;;;5012651;28;20030;-75
2021/10/30 08:00:34;;;;;;;9.05;4.93;;;12.70;99.60;;;;;;5014393;28;20025;-76
2021/10/30 08:03:00;;;;;;;8.23;4.22;;;12.70;99.60;;;;;;5011709;28;20026;-76
2021/10/30 08:05:25;;;;;;;11.35;5.18;;;12.80;99.60;;;;;;5013828;28;20054;-76
2021/10/30 08:07:51;;;;;;;8.75;4.43;;;12.80;99.60;;;;;;5013845;28;20457;-76
2021/10/30 08:10:17;;;;;;;9.60;5.28;;;12.80;99.50;;;;;;5013724;28;20022;-76
2021/10/30 08:12:44;;;;;;;12.25;7.22;;;12.80;99.50;;;;;;5014254;28;20022;-76
2021/10/30 08:15:10;;;;;;;11.32;5.38;;;12.80;99.50;;;;;;5014299;28;20445;-76
2021/10/30 08:17:36;;;;;;;8.68;4.75;;;12.90;99.50;;;;;;5012972;28;20033;-75
2021/10/30 08:20:03;;;;;;;9.93;4.65;;;12.80;99.50;;;;;;5012634;28;20026;-76
2021/10/30 08:22:29;;;;;;;7.35;4.72;;;12.90;99.50;;;;;;5013314;28;20076;-76
2021/10/30 08:24:55;;;;;;;10.48;5.57;;;12.90;99.50;;;;;;5012854;28;20018;-76
2021/10/30 08:27:20;;;;;;;12.30;6.70;;;12.90;99.50;;;;;;5012821;28;20037;-77
2021/10/30 08:29:46;;;;;;;8.73;4.70;;;12.90;99.50;;;;;;5013112;28;20046;-77
2021/10/30 08:32:12;;;;;;;7.18;3.75;;;12.90;99.50;;;;;;5013438;28;20462;-76
2021/10/30 08:34:38;;;;;;;7.75;3.92;;;12.90;99.50;;;;;;5011808;28;20462;-76
2021/10/30 08:37:05;;;;;;;8.30;4.10;;;12.90;99.50;;;;;;5012815;28;20061;-76
2021/10/30 08:39:31;;;;;;;6.43;3.72;;;12.90;99.50;;;;;;5013674;28;20026;-76
2021/10/30 08:41:57;;;;;;;7.55;4.07;;;13.00;99.50;;;;;;5012110;28;20396;-76
2021/10/30 08:44:23;;;;;;;5.95;3.75;;;13.00;99.50;;;;;;5013385;28;20022;-76
2021/10/30 08:46:53;;;;;;;8.80;4.15;;;13.00;99.50;;;;;;5012248;28;20072;-76
2021/10/30 08:49:21;;;;;;;6.88;3.20;;;13.00;99.40;;;;;;5012028;28;20357;-76
2021/10/30 08:51:50;;;;;;;6.53;3.92;;;13.00;99.50;;;;;;5013286;28;20030;-77
2021/10/30 08:54:16;;;;;;;7.07;3.97;;;13.00;99.40;;;;;;5012112;28;20481;-77
2021/10/30 08:56:43;;;;;;;9.48;4.80;;;13.00;99.40;;;;;;5012163;28;20410;-76
2021/10/30 08:59:09;;;;;;;7.38;3.78;;;13.00;99.40;;;;;;5013786;28;20026;-76
2021/10/30 09:01:45;;;;;;;6.82;3.60;;;13.00;99.40;;;;;;5012143;28;20356;-76
2021/10/30 09:04:13;;;;;;;6.43;3.80;;;13.10;99.40;;;;;;5012129;28;20152;-76
2021/10/30 09:06:54;;;;;;;6.80;3.92;;;13.10;99.40;;;;;;5013079;28;20026;-76
2021/10/30 09:09:20;;;;;;;5.80;3.10;;;13.10;99.40;;;;;;5013221;28;20108;-76
2021/10/30 09:12:01;;;;;;;5.50;3.20;;;13.10;99.40;;;;;;5012160;28;20038;-76
2021/10/30 09:14:29;;;;;;;7.80;4.00;;;13.20;99.40;;;;;;5015552;28;20079;-76
2021/10/30 09:17:17;;;;;;;7.55;3.72;;;13.20;99.40;;;;;;5016699;28;20095;-77
2021/10/30 09:19:47;;;;;;;7.70;3.22;;;13.30;99.40;;;;;;5016003;28;20361;-76
2021/10/30 09:22:15;;;;;;;8.10;3.45;;;13.30;99.30;;;;;;5016247;28;20021;-76
2021/10/30 09:25:02;;;;;;;5.95;3.38;;;13.20;99.30;;;;;;5015876;28;20022;-76
2021/10/30 09:28:01;;;;;;;5.57;2.78;;;13.30;99.30;;;;;;5017140;28;20220;-76
2021/10/30 09:30:32;;;;;;;7.20;3.80;;;13.30;99.30;;;;;;5016625;28;20060;-75
2021/10/30 09:32:59;;;;;;;;;;;13.30;99.30;;;;;;5016043;28;20018;-75
2021/10/30 09:35:30;;;;;;;7.53;3.83;;;13.30;99.30;;;;;;5017146;28;19948;-75
2021/10/30 09:37:56;;;;;;;7.05;3.65;;;13.30;99.30;;;;;;5015551;28;20022;-75
2021/10/30 09:40:25;;;;;;;8.75;3.58;;;13.30;99.30;;;;;;5016494;28;20158;-76
2021/10/30 09:43:09;;;;;;;7.43;3.35;;;13.30;99.30;;;;;;5015192;28;20460;-76
2021/10/30 09:45:39;;;;;;;6.03;3.10;;;13.30;99.30;;;;;;5016981;28;20025;-76
2021/10/30 09:48:05;;;;;;;7.57;3.85;;;13.30;99.30;;;;;;5015996;28;20026;-76
2021/10/30 09:50:34;;;;;;;8.85;3.38;;;13.30;99.30;;;;;;5016043;28;20048;-76
2021/10/30 09:53:24;;;;;;;5.97;3.45;;;13.30;99.30;;;;;;5016447;28;20109;-77
2021/10/30 09:55:55;;;;;;;5.45;3.03;;;13.40;99.40;;;;;;5017136;28;20446;-76
2021/10/30 09:58:29;;;;;;;6.28;3.08;;;13.40;99.30;;;;;;5016259;28;20026;-76
2021/10/30 10:01:19;;;;;;;5.70;2.72;;;13.40;99.30;;;;;;5016010;28;20022;-76
2021/10/30 10:03:49;;;;;;;6.17;3.17;;;13.40;99.60;;;;;;5009630;28;20368;-76
2021/10/30 10:06:17;;;;;;;5.00;2.58;;;13.40;99.30;;;;;;5014944;28;20029;-76
2021/10/30 10:08:44;;;;;;;6.50;3.50;;;13.40;99.40;;;;;;5014835;28;20026;-76
2021/10/30 10:11:12;;;;;;;6.57;3.58;;;13.40;99.40;;;;;;5015106;28;20041;-76
2021/10/30 10:13:40;;;;;;;6.10;2.75;;;13.40;99.40;;;;;;5016006;28;20054;-76
2021/10/30 10:16:13;;;;;;;7.15;4.00;;;13.30;99.50;;;;;;5015986;28;20021;-76
2021/10/30 10:18:40;;;;;;;5.80;3.22;;;13.40;99.50;;;;;;5014806;28;20014;-77
2021/10/30 10:21:10;;;;;;;6.22;3.20;;;13.40;99.50;;;;;;5015791;28;20022;-76
2021/10/30 10:23:38;;;;;;;7.05;3.33;;;13.40;99.50;;;;;;5016297;28;20561;-76
2021/10/30 10:26:04;;;;;;;5.38;3.28;;;13.40;99.50;;;;;;5013363;28;20033;-76
2021/10/30 10:28:38;;;;;;;7.13;3.83;;;13.40;99.50;;;;;;5015662;28;20014;-76
2021/10/30 10:31:09;;;;;;;7.88;3.60;;;13.40;99.50;;;;;;5016425;28;20053;-76
2021/10/30 10:33:36;;;;;;;6.55;3.75;;;13.50;99.50;;;;;;5015819;28;20442;-76
2021/10/30 10:36:13;;;;;;;7.68;3.55;;;13.50;99.50;;;;;;5014111;28;20037;-77
2021/10/30 10:38:57;;;;;;;7.20;3.13;;;13.50;99.40;;;;;;5015493;28;20018;-78
2021/10/30 10:41:38;;;;;;;6.10;3.28;;;13.60;99.40;;;;;;5015628;28;20161;-78
2021/10/30 10:44:08;;;;;;;6.32;3.45;;;13.50;99.40;;;;;;5014002;28;20021;-78
2021/10/30 10:46:41;;;;;;;7.57;3.40;;;13.60;99.40;;;;;;5014035;28;20018;-77
2021/10/30 10:49:40;;;;;;;5.07;3.17;;;13.60;99.40;;;;;;5015484;28;20422;-77
2021/10/30 10:55:02;;;;;;;6.60;3.00;;;13.60;99.40;;;;;;5016297;28;20034;-77
2021/10/30 10:57:33;;;;;;;6.85;3.60;;;13.60;99.40;;;;;;5014613;28;20033;-76
2021/10/30 11:00:00;;;;;;;;;;;13.60;99.40;;;;;;5014675;28;20058;-76
2021/10/30 11:02:31;;;;;;;5.10;3.08;;;13.60;99.50;;;;;;5015134;28;19963;-76
2021/10/30 11:05:13;;;;;;;;;;;13.60;99.50;;;;;;5015742;28;20092;-77
2021/10/30 11:08:02;;;;;;;7.57;4.22;;;13.60;99.50;;;;;;5015022;28;19917;-78
2021/10/30 11:10:38;;;;;;;8.63;4.20;;;13.60;99.50;;;;;;4993207;28;20231;-78
2021/10/30 11:13:09;;;;;;;5.70;3.50;;;13.60;99.50;;;;;;5013918;28;20366;-77
2021/10/30 11:15:48;;;;;;;6.38;3.55;;;13.60;99.50;;;;;;5015282;28;20417;-75
2021/10/30 11:21:08;;;;;;;6.80;3.03;;;13.60;99.60;;;;;;5015029;28;20480;-76
2021/10/30 11:23:45;;;;;;;5.88;2.80;;;13.60;99.60;;;;;;5014428;28;20481;-76
2021/10/30 11:26:17;;;;;;;6.85;2.85;;;13.70;99.60;;;;;;5013722;28;20026;-75
2021/10/30 11:28:43;;;;;;;7.53;3.08;;;13.70;99.60;;;;;;5014872;28;20025;-78
2021/10/30 11:31:16;;;;;;;5.35;2.78;;;13.70;99.60;;;;;;5013176;28;20046;-78
2021/10/30 11:33:43;;;;;;;4.95;2.60;;;13.70;99.60;;;;;;5013009;28;20025;-77
2021/10/30 11:36:15;;;;;;;5.15;2.65;;;13.70;99.60;;;;;;5012945;28;20025;-76
2021/10/30 11:38:47;;;;;;;5.57;3.10;;;13.70;99.70;;;;;;5012844;28;20049;-76
2021/10/30 11:41:21;;;;;;;4.70;2.78;;;13.70;99.70;;;;;;5013168;28;20032;-76
2021/10/30 11:43:49;;;;;;;7.88;3.00;;;13.80;99.70;;;;;;5013741;28;20009;-75
2021/10/30 11:46:18;;;;;;;5.55;2.95;;;13.70;99.70;;;;;;5012913;28;20084;-76
2021/10/30 11:48:55;;;;;;;4.57;2.65;;;13.80;99.70;;;;;;5013895;28;20022;-76
2021/10/30 11:51:27;;;;;;;6.57;2.97;;;13.80;99.70;;;;;;5014099;28;20030;-76
2021/10/30 11:53:53;;;;;;;4.28;2.83;;;13.90;99.70;;;;;;5013311;28;20026;-75
2021/10/30 11:56:25;;;;;;;5.30;2.53;;;13.90;99.60;;;;;;5012374;28;20099;-75
2021/10/30 11:58:56;;;;;;;5.30;2.72;;;13.90;99.60;;;;;;5012364;28;20042;-75
2021/10/30 12:01:30;;;;;;;6.63;2.45;;;14.00;99.50;;;;;;5012632;28;20112;-76
2021/10/30 12:04:17;;;;;;;6.18;2.75;;;14.10;99.50;;;;;;5012797;28;20030;-76
2021/10/30 12:06:52;;;;;;;4.88;2.33;;;14.10;99.50;;;;;;5012718;28;20053;-76
2021/10/30 12:09:23;;;;;;;4.95;2.58;;;14.10;99.50;;;;;;5013863;28;20461;-76
2021/10/30 12:11:52;;;;;;;5.13;2.55;;;14.10;99.50;;;;;;5013675;28;20091;-76
2021/10/30 12:14:27;;;;;;;4.90;2.63;;;14.20;99.50;;;;;;5013126;28;20067;-75
2021/10/30 12:17:04;;;;;;;3.88;2.42;;;14.20;99.50;;;;;;5013063;28;20022;-76
2021/10/30 12:19:38;;;;;;;3.70;2.10;;;14.20;99.40;;;;;;5013625;28;20054;-77
2021/10/30 12:22:07;;;;;;;4.90;2.50;;;14.30;99.40;;;;;;5013362;28;20457;-76
2021/10/30 12:24:33;;;;;;;5.15;2.45;;;14.30;99.40;;;;;;5012562;28;20018;-77
2021/10/30 12:27:04;;;;;;;7.03;3.55;;;14.30;99.40;;;;;;5012362;28;20370;-76
2021/10/30 12:29:45;;;;;;;5.70;2.80;;;14.30;99.40;;;;;;5013334;28;20097;-77
2021/10/30 12:32:16;;;;;;;4.57;2.10;;;14.40;99.40;;;;;;5013767;28;20365;-76
2021/10/30 12:35:09;;;;;;;5.05;2.63;;;14.40;99.30;;;;;;5013503;28;20018;-76
2021/10/30 12:37:37;;;;;;;6.45;2.70;;;14.50;99.20;;;;;;4996822;28;20033;-76
2021/10/30 12:40:07;;;;;;;5.30;2.55;;;14.60;99.10;;;;;;5013012;28;20354;-76
2021/10/30 12:42:34;;;;;;;5.10;2.65;;;14.60;99.10;;;;;;5012687;28;20014;-77
2021/10/30 12:45:00;;;;;;;5.80;2.83;;;14.60;99.20;;;;;;5011853;28;20041;-76
2021/10/30 12:47:28;;;;;;;4.82;2.85;;;14.60;99.20;;;;;;5012322;28;20359;-76
2021/10/30 12:50:10;;;;;;;4.18;2.53;;;14.60;99.20;;;;;;5013311;28;20384;-76
2021/10/30 12:52:46;;;;;;;4.38;2.50;;;14.70;99.20;;;;;;5013340;28;20034;-76
2021/10/30 12:55:17;;;;;;;5.70;2.47;;;14.80;99.10;;;;;;5013798;28;20017;-76